Marco Polo — BR2031 — position and weather

sailwx.info

Track history (hours):
 
Tides and Currents Weather Stations Pressure Air Temp Water Temp Dewpoint Dewpoint Depression Visibility Wind Speed Wind Dir Waves Ship Positions

Marco Polo

Last reported at 2015-May-05 02:33 UTC. Time now 2015-May-05 03:11 UTC.
Position N 24°31' E 118°13'.

Length 32 m.

MMSI: 416000256.

Date/timePositionNaut miles runAvg speedWind from/ knotsBaromVisibWave heightAir tempDewpointWater temp
2015-May-05 02:33N 24°31' E 118°13'7 7.2
2015-May-05 01:32N 24°25' E 118°17'0 0.0
2015-May-05 00:31N 24°25' E 118°17'0 0.0
2015-May-04 23:32N 24°25' E 118°17'0 0.0
2015-May-04 22:31N 24°25' E 118°17'0 0.0
2015-May-04 21:33N 24°25' E 118°17'0 0.0
2015-May-04 20:29N 24°25' E 118°17'0 0.0
2015-May-04 19:34N 24°25' E 118°17'0 0.0
2015-May-04 18:33N 24°25' E 118°17'0 0.0
2015-May-04 17:28N 24°25' E 118°17'0 0.0
2015-May-04 16:33N 24°25' E 118°17'0 0.0
2015-May-04 15:33N 24°25' E 118°17'0 0.0
2015-May-04 14:33N 24°25' E 118°17'0 0.0
2015-May-04 09:33N 24°25' E 118°17'9 8.8
2015-May-04 08:32N 24°32' E 118°11'9 8.6
2015-May-04 07:33N 24°25' E 118°17'0 0.3
2015-May-04 06:10N 24°25' E 118°17'914.1
2015-May-04 05:32N 24°32' E 118°11'2 1.6
2015-May-04 04:33N 24°31' E 118°13'8 7.5
2015-May-04 03:32N 24°25' E 118°17'0 0.0
2015-May-04 02:33N 24°25' E 118°17'1 0.9
2015-May-04 01:32N 24°26' E 118°17'8 8.4
2015-May-04 00:33N 24°32' E 118°11'9 9.0
2015-May-03 23:33N 24°25' E 118°17'0 0.0
2015-May-03 22:33N 24°25' E 118°17'0 0.0
2015-May-03 21:33N 24°25' E 118°17'0 0.0
2015-May-03 20:33N 24°25' E 118°17'0 0.0
2015-May-03 19:33N 24°25' E 118°17'0 0.0
2015-May-03 18:33N 24°25' E 118°17'0 0.0
2015-May-03 17:33N 24°25' E 118°17'0 0.0
2015-May-03 16:33N 24°25' E 118°17'0 0.0
2015-May-03 15:33N 24°25' E 118°17'0 0.0
2015-May-03 14:34N 24°25' E 118°17'0 0.1
2015-May-03 10:32N 24°25' E 118°17'0 0.0
2015-May-03 09:33N 24°25' E 118°17'0 0.0
2015-May-03 08:33N 24°25' E 118°17'0 0.0
2015-May-03 07:14N 24°25' E 118°17'811.7
2015-May-03 06:33N 24°32' E 118°12'2 2.0
2015-May-03 05:27N 24°31' E 118°14'6 6.6
2015-May-03 04:30N 24°25' E 118°17'0 0.1
2015-May-03 03:30N 24°25' E 118°17'1 1.3
2015-May-03 02:33N 24°26' E 118°17'8 8.0
2015-May-03 01:33N 24°32' E 118°11'9 8.7
2015-May-03 00:31N 24°25' E 118°17'0 0.0
2015-May-02 23:32N 24°25' E 118°17'0 0.0
2015-May-02 22:33N 24°25' E 118°17'0 0.0
2015-May-02 21:33N 24°25' E 118°17'0 0.0
2015-May-02 20:33N 24°25' E 118°17'0 0.0
2015-May-02 19:31N 24°25' E 118°17'0 0.0
2015-May-02 18:33N 24°25' E 118°17'0 0.0
2015-May-02 17:33N 24°25' E 118°17'0 0.0
2015-May-02 16:29N 24°25' E 118°17'0 0.0
2015-May-02 15:27N 24°25' E 118°17'0 0.0
2015-May-02 14:33N 24°25' E 118°17'2 0.5
2015-May-02 10:32N 24°27' E 118°17'7 7.4
2015-May-02 09:33N 24°32' E 118°11'9 8.6
2015-May-02 08:31N 24°25' E 118°17'0 0.4
2015-May-02 07:30N 24°25' E 118°17'0 0.0
2015-May-02 06:33N 24°25' E 118°17'0 0.0
2015-May-02 05:33N 24°25' E 118°17'0 0.5
2015-May-02 04:33N 24°25' E 118°17'8 7.6
2015-May-02 03:33N 24°31' E 118°13'2 1.6
2015-May-02 02:33N 24°32' E 118°11'9 2.9
2015-May-01 23:32N 24°25' E 118°17'0 0.0
2015-May-01 22:33N 24°25' E 118°17'0 0.0
2015-May-01 21:32N 24°25' E 118°17'0 0.0
2015-May-01 20:24N 24°25' E 118°17'0 0.0
2015-May-01 19:21N 24°25' E 118°17'0 0.0
2015-May-01 18:14N 24°25' E 118°17'0 0.0
2015-May-01 17:33N 24°25' E 118°17'0 0.0
2015-May-01 16:33N 24°25' E 118°17'0 0.0
2015-May-01 15:31N 24°25' E 118°17'0 0.0
2015-May-01 14:31N 24°25' E 118°17'0 0.0
2015-May-01 09:29N 24°25' E 118°17'0 0.0
2015-May-01 08:33N 24°25' E 118°17'8 8.1
2015-May-01 07:33N 24°32' E 118°12'1 0.6
2015-May-01 06:32N 24°32' E 118°13'8 7.8
2015-May-01 05:31N 24°25' E 118°17'2 0.5
2015-May-01 01:32N 24°27' E 118°17'7 6.8
2015-May-01 00:33N 24°32' E 118°12'8 8.4
2015-Apr-30 23:33N 24°25' E 118°17'0 0.0
2015-Apr-30 22:33N 24°25' E 118°17'0 0.0
2015-Apr-30 21:31N 24°25' E 118°17'0 0.0
2015-Apr-30 20:32N 24°25' E 118°17'0 0.0
2015-Apr-30 19:32N 24°25' E 118°17'0 0.0
2015-Apr-30 18:14N 24°25' E 118°17'0 0.0
2015-Apr-30 17:05N 24°25' E 118°17'0 0.0
2015-Apr-30 16:33N 24°25' E 118°17'0 0.0
2015-Apr-30 15:32N 24°25' E 118°17'8 1.7
2015-Apr-30 10:34N 24°32' E 118°12'8 8.2
2015-Apr-30 09:33N 24°25' E 118°17'0 0.1
2015-Apr-30 08:33N 24°25' E 118°17'0 0.0
2015-Apr-30 07:33N 24°25' E 118°17'9 8.9
2015-Apr-30 06:33N 24°32' E 118°11'2 1.8
2015-Apr-30 05:33N 24°31' E 118°13'7 7.3
2015-Apr-30 04:32N 24°25' E 118°17'0 0.5
2015-Apr-30 03:33N 24°25' E 118°17'0 0.0
2015-Apr-30 02:33N 24°25' E 118°17'0 0.0
2015-Apr-30 01:32N 24°25' E 118°17'0 0.0
2015-Apr-30 00:33N 24°25' E 118°17'0 0.0
2015-Apr-29 23:31N 24°25' E 118°17'0 0.0
2015-Apr-29 22:32N 24°25' E 118°17'0 0.0
2015-Apr-29 21:32N 24°25' E 118°17'0 0.0
2015-Apr-29 20:32N 24°25' E 118°17'0 0.0
2015-Apr-29 19:33N 24°25' E 118°17'0 0.0
2015-Apr-29 18:32N 24°25' E 118°17'0 0.0
2015-Apr-29 17:31N 24°25' E 118°17'0 0.0
2015-Apr-29 16:29N 24°25' E 118°17'0 0.0
2015-Apr-29 15:24N 24°25' E 118°17'0 0.0
2015-Apr-29 14:32N 24°25' E 118°17'0 0.0
2015-Apr-29 10:30N 24°25' E 118°17'0 0.0
2015-Apr-29 09:32N 24°25' E 118°17'0 0.0
2015-Apr-29 08:32N 24°25' E 118°17'0 0.0
2015-Apr-29 07:32N 24°25' E 118°17'9 8.5
2015-Apr-29 06:31N 24°32' E 118°11'1 1.5
2015-Apr-29 05:33N 24°32' E 118°13'8 7.6
2015-Apr-29 04:31N 24°25' E 118°17'0 0.1
2015-Apr-29 03:26N 24°25' E 118°17'2 2.6
2015-Apr-29 02:32N 24°27' E 118°17'6 6.4
2015-Apr-29 01:32N 24°32' E 118°12'8 1.2
2015-Apr-28 18:32N 24°25' E 118°17'0 0.0
2015-Apr-28 17:31N 24°25' E 118°17'0 0.0
2015-Apr-28 16:33N 24°25' E 118°17'0 0.0
2015-Apr-28 15:33N 24°25' E 118°17'0 0.0
2015-Apr-28 14:32N 24°25' E 118°17'2 0.4
2015-Apr-28 10:33N 24°27' E 118°17'8 6.9
2015-Apr-28 09:25N 24°32' E 118°11'9 9.6
2015-Apr-28 08:30N 24°25' E 118°17'0 0.1
2015-Apr-28 03:04N 24°25' E 118°17'0 0.0
2015-Apr-28 02:33N 24°25' E 118°17'1 1.0
2015-Apr-28 01:33N 24°26' E 118°17'6 5.8
2015-Apr-28 00:31N 24°31' E 118°13'7 7.4
2015-Apr-27 23:32N 24°25' E 118°17'0 0.0
2015-Apr-27 22:33N 24°25' E 118°17'0 0.0
2015-Apr-27 21:33N 24°25' E 118°17'0 0.0
2015-Apr-27 20:32N 24°25' E 118°17'0 0.0
2015-Apr-27 19:32N 24°25' E 118°17'0 0.0
2015-Apr-27 18:33N 24°25' E 118°17'0 0.0
2015-Apr-27 17:32N 24°25' E 118°17'0 0.0
2015-Apr-27 16:33N 24°25' E 118°17'0 0.0
2015-Apr-27 15:33N 24°25' E 118°17'0 0.0
2015-Apr-27 14:33N 24°25' E 118°17'9 2.3
2015-Apr-27 10:33N 24°32' E 118°11'9 8.8
2015-Apr-27 09:31N 24°25' E 118°17'0 0.0
2015-Apr-27 07:22N 24°25' E 118°17'911.1
2015-Apr-27 06:33N 24°32' E 118°11'1 1.0
2015-Apr-27 05:32N 24°32' E 118°12'8 7.9
2015-Apr-27 04:33N 24°25' E 118°17'0 0.0
2015-Apr-27 03:17N 24°25' E 118°17'0 0.0
2015-Apr-27 02:32N 24°25' E 118°17'0 0.0
2015-Apr-27 01:33N 24°25' E 118°17'0 0.0
2015-Apr-27 00:33N 24°25' E 118°17'0 0.0
2015-Apr-26 23:33N 24°25' E 118°17'0 0.0
2015-Apr-26 22:32N 24°25' E 118°17'0 0.0
2015-Apr-26 21:33N 24°25' E 118°17'0 0.0
2015-Apr-26 20:33N 24°25' E 118°17'0 0.0
2015-Apr-26 19:33N 24°25' E 118°17'0 0.0
2015-Apr-26 18:31N 24°25' E 118°17'0 0.0
2015-Apr-26 17:28N 24°25' E 118°17'0 0.0
2015-Apr-26 16:33N 24°25' E 118°17'0 0.0
2015-Apr-26 15:32N 24°25' E 118°17'0 0.0
2015-Apr-26 14:32N 24°25' E 118°17'0 0.0
2015-Apr-26 10:22N 24°25' E 118°17'5 5.8
2015-Apr-26 09:33N 24°30' E 118°15'4 4.1
2015-Apr-26 08:32N 24°32' E 118°11'9 9.0
2015-Apr-26 07:33N 24°25' E 118°17'0 0.0
2015-Apr-26 06:32N 24°25' E 118°17'0 0.5
2015-Apr-26 05:32N 24°25' E 118°17'0 0.0
2015-Apr-26 04:33N 24°25' E 118°17'7 7.4
2015-Apr-26 03:32N 24°32' E 118°13'1 1.3
2015-Apr-26 02:32N 24°31' E 118°14'7 6.6
2015-Apr-26 01:32N 24°25' E 118°17'0 0.1
2015-Apr-26 00:32N 24°25' E 118°17'0 0.0
2015-Apr-25 23:33N 24°25' E 118°17'0 0.0
2015-Apr-25 22:26N 24°25' E 118°17'0 0.0
2015-Apr-25 21:32N 24°25' E 118°17'0 0.0
2015-Apr-25 20:33N 24°25' E 118°17'0 0.0
2015-Apr-25 19:32N 24°25' E 118°17'0 0.0
2015-Apr-25 18:31N 24°25' E 118°17'0 0.0
2015-Apr-25 17:33N 24°25' E 118°17'0 0.0
2015-Apr-25 16:34N 24°25' E 118°17'0 0.0
2015-Apr-25 15:28N 24°25' E 118°17'0 0.0
2015-Apr-25 14:31N 24°25' E 118°17'0 0.0
2015-Apr-25 10:22N 24°25' E 118°17'0 0.0
2015-Apr-25 09:28N 24°25' E 118°17'0 0.0
2015-Apr-25 08:24N 24°25' E 118°17'8 9.8
2015-Apr-25 07:33N 24°32' E 118°12'1 0.7
2015-Apr-25 06:33N 24°32' E 118°13'6 1.6
2015-Apr-25 02:33N 24°27' E 118°17'  
Track history (hours):
 
Tides and Currents Weather Stations Pressure Air Temp Water Temp Dewpoint Dewpoint Depression Visibility Wind Speed Wind Dir Waves Ship Positions

Marco Polo

Last reported at 2015-May-05 02:33 UTC. Time now 2015-May-05 03:11 UTC.
Position N 24°31' E 118°13'.

Length 32 m.

MMSI: 416000256.

Date/timePositionNaut miles runAvg speedWind from/ knotsBaromVisibWave heightAir tempDewpointWater temp
2015-May-05 02:33N 24°31' E 118°13'7 7.2
2015-May-05 01:32N 24°25' E 118°17'0 0.0
2015-May-05 00:31N 24°25' E 118°17'0 0.0
2015-May-04 23:32N 24°25' E 118°17'0 0.0
2015-May-04 22:31N 24°25' E 118°17'0 0.0
2015-May-04 21:33N 24°25' E 118°17'0 0.0
2015-May-04 20:29N 24°25' E 118°17'0 0.0
2015-May-04 19:34N 24°25' E 118°17'0 0.0
2015-May-04 18:33N 24°25' E 118°17'0 0.0
2015-May-04 17:28N 24°25' E 118°17'0 0.0
2015-May-04 16:33N 24°25' E 118°17'0 0.0
2015-May-04 15:33N 24°25' E 118°17'0 0.0
2015-May-04 14:33N 24°25' E 118°17'0 0.0
2015-May-04 09:33N 24°25' E 118°17'9 8.8
2015-May-04 08:32N 24°32' E 118°11'9 8.6
2015-May-04 07:33N 24°25' E 118°17'0 0.3
2015-May-04 06:10N 24°25' E 118°17'914.1
2015-May-04 05:32N 24°32' E 118°11'2 1.6
2015-May-04 04:33N 24°31' E 118°13'8 7.5
2015-May-04 03:32N 24°25' E 118°17'0 0.0
2015-May-04 02:33N 24°25' E 118°17'1 0.9
2015-May-04 01:32N 24°26' E 118°17'8 8.4
2015-May-04 00:33N 24°32' E 118°11'9 9.0
2015-May-03 23:33N 24°25' E 118°17'0 0.0
2015-May-03 22:33N 24°25' E 118°17'0 0.0
2015-May-03 21:33N 24°25' E 118°17'0 0.0
2015-May-03 20:33N 24°25' E 118°17'0 0.0
2015-May-03 19:33N 24°25' E 118°17'0 0.0
2015-May-03 18:33N 24°25' E 118°17'0 0.0
2015-May-03 17:33N 24°25' E 118°17'0 0.0
2015-May-03 16:33N 24°25' E 118°17'0 0.0
2015-May-03 15:33N 24°25' E 118°17'0 0.0
2015-May-03 14:34N 24°25' E 118°17'0 0.1
2015-May-03 10:32N 24°25' E 118°17'0 0.0
2015-May-03 09:33N 24°25' E 118°17'0 0.0
2015-May-03 08:33N 24°25' E 118°17'0 0.0
2015-May-03 07:14N 24°25' E 118°17'811.7
2015-May-03 06:33N 24°32' E 118°12'2 2.0
2015-May-03 05:27N 24°31' E 118°14'6 6.6
2015-May-03 04:30N 24°25' E 118°17'0 0.1
2015-May-03 03:30N 24°25' E 118°17'1 1.3
2015-May-03 02:33N 24°26' E 118°17'8 8.0
2015-May-03 01:33N 24°32' E 118°11'9 8.7
2015-May-03 00:31N 24°25' E 118°17'0 0.0
2015-May-02 23:32N 24°25' E 118°17'0 0.0
2015-May-02 22:33N 24°25' E 118°17'0 0.0
2015-May-02 21:33N 24°25' E 118°17'0 0.0
2015-May-02 20:33N 24°25' E 118°17'0 0.0
2015-May-02 19:31N 24°25' E 118°17'0 0.0
2015-May-02 18:33N 24°25' E 118°17'0 0.0
2015-May-02 17:33N 24°25' E 118°17'0 0.0
2015-May-02 16:29N 24°25' E 118°17'0 0.0
2015-May-02 15:27N 24°25' E 118°17'0 0.0
2015-May-02 14:33N 24°25' E 118°17'2 0.5
2015-May-02 10:32N 24°27' E 118°17'7 7.4
2015-May-02 09:33N 24°32' E 118°11'9 8.6
2015-May-02 08:31N 24°25' E 118°17'0 0.4
2015-May-02 07:30N 24°25' E 118°17'0 0.0
2015-May-02 06:33N 24°25' E 118°17'0 0.0
2015-May-02 05:33N 24°25' E 118°17'0 0.5
2015-May-02 04:33N 24°25' E 118°17'8 7.6
2015-May-02 03:33N 24°31' E 118°13'2 1.6
2015-May-02 02:33N 24°32' E 118°11'9 2.9
2015-May-01 23:32N 24°25' E 118°17'0 0.0
2015-May-01 22:33N 24°25' E 118°17'0 0.0
2015-May-01 21:32N 24°25' E 118°17'0 0.0
2015-May-01 20:24N 24°25' E 118°17'0 0.0
2015-May-01 19:21N 24°25' E 118°17'0 0.0
2015-May-01 18:14N 24°25' E 118°17'0 0.0
2015-May-01 17:33N 24°25' E 118°17'0 0.0
2015-May-01 16:33N 24°25' E 118°17'0 0.0
2015-May-01 15:31N 24°25' E 118°17'0 0.0
2015-May-01 14:31N 24°25' E 118°17'0 0.0
2015-May-01 09:29N 24°25' E 118°17'0 0.0
2015-May-01 08:33N 24°25' E 118°17'8 8.1
2015-May-01 07:33N 24°32' E 118°12'1 0.6
2015-May-01 06:32N 24°32' E 118°13'8 7.8
2015-May-01 05:31N 24°25' E 118°17'2 0.5
2015-May-01 01:32N 24°27' E 118°17'7 6.8
2015-May-01 00:33N 24°32' E 118°12'8 8.4
2015-Apr-30 23:33N 24°25' E 118°17'0 0.0
2015-Apr-30 22:33N 24°25' E 118°17'0 0.0
2015-Apr-30 21:31N 24°25' E 118°17'0 0.0
2015-Apr-30 20:32N 24°25' E 118°17'0 0.0
2015-Apr-30 19:32N 24°25' E 118°17'0 0.0
2015-Apr-30 18:14N 24°25' E 118°17'0 0.0
2015-Apr-30 17:05N 24°25' E 118°17'0 0.0
2015-Apr-30 16:33N 24°25' E 118°17'0 0.0
2015-Apr-30 15:32N 24°25' E 118°17'8 1.7
2015-Apr-30 10:34N 24°32' E 118°12'8 8.2
2015-Apr-30 09:33N 24°25' E 118°17'0 0.1
2015-Apr-30 08:33N 24°25' E 118°17'0 0.0
2015-Apr-30 07:33N 24°25' E 118°17'9 8.9
2015-Apr-30 06:33N 24°32' E 118°11'2 1.8
2015-Apr-30 05:33N 24°31' E 118°13'7 7.3
2015-Apr-30 04:32N 24°25' E 118°17'0 0.5
2015-Apr-30 03:33N 24°25' E 118°17'0 0.0
2015-Apr-30 02:33N 24°25' E 118°17'0 0.0
2015-Apr-30 01:32N 24°25' E 118°17'0 0.0
2015-Apr-30 00:33N 24°25' E 118°17'0 0.0
2015-Apr-29 23:31N 24°25' E 118°17'0 0.0
2015-Apr-29 22:32N 24°25' E 118°17'0 0.0
2015-Apr-29 21:32N 24°25' E 118°17'0 0.0
2015-Apr-29 20:32N 24°25' E 118°17'0 0.0
2015-Apr-29 19:33N 24°25' E 118°17'0 0.0
2015-Apr-29 18:32N 24°25' E 118°17'0 0.0
2015-Apr-29 17:31N 24°25' E 118°17'0 0.0
2015-Apr-29 16:29N 24°25' E 118°17'0 0.0
2015-Apr-29 15:24N 24°25' E 118°17'0 0.0
2015-Apr-29 14:32N 24°25' E 118°17'0 0.0
2015-Apr-29 10:30N 24°25' E 118°17'0 0.0
2015-Apr-29 09:32N 24°25' E 118°17'0 0.0
2015-Apr-29 08:32N 24°25' E 118°17'0 0.0
2015-Apr-29 07:32N 24°25' E 118°17'9 8.5
2015-Apr-29 06:31N 24°32' E 118°11'1 1.5
2015-Apr-29 05:33N 24°32' E 118°13'8 7.6
2015-Apr-29 04:31N 24°25' E 118°17'0 0.1
2015-Apr-29 03:26N 24°25' E 118°17'2 2.6
2015-Apr-29 02:32N 24°27' E 118°17'6 6.4
2015-Apr-29 01:32N 24°32' E 118°12'8 1.2
2015-Apr-28 18:32N 24°25' E 118°17'0 0.0
2015-Apr-28 17:31N 24°25' E 118°17'0 0.0
2015-Apr-28 16:33N 24°25' E 118°17'0 0.0
2015-Apr-28 15:33N 24°25' E 118°17'0 0.0
2015-Apr-28 14:32N 24°25' E 118°17'2 0.4
2015-Apr-28 10:33N 24°27' E 118°17'8 6.9
2015-Apr-28 09:25N 24°32' E 118°11'9 9.6
2015-Apr-28 08:30N 24°25' E 118°17'0 0.1
2015-Apr-28 03:04N 24°25' E 118°17'0 0.0
2015-Apr-28 02:33N 24°25' E 118°17'1 1.0
2015-Apr-28 01:33N 24°26' E 118°17'6 5.8
2015-Apr-28 00:31N 24°31' E 118°13'7 7.4
2015-Apr-27 23:32N 24°25' E 118°17'0 0.0
2015-Apr-27 22:33N 24°25' E 118°17'0 0.0
2015-Apr-27 21:33N 24°25' E 118°17'0 0.0
2015-Apr-27 20:32N 24°25' E 118°17'0 0.0
2015-Apr-27 19:32N 24°25' E 118°17'0 0.0
2015-Apr-27 18:33N 24°25' E 118°17'0 0.0
2015-Apr-27 17:32N 24°25' E 118°17'0 0.0
2015-Apr-27 16:33N 24°25' E 118°17'0 0.0
2015-Apr-27 15:33N 24°25' E 118°17'0 0.0
2015-Apr-27 14:33N 24°25' E 118°17'9 2.3
2015-Apr-27 10:33N 24°32' E 118°11'9 8.8
2015-Apr-27 09:31N 24°25' E 118°17'0 0.0
2015-Apr-27 07:22N 24°25' E 118°17'911.1
2015-Apr-27 06:33N 24°32' E 118°11'1 1.0
2015-Apr-27 05:32N 24°32' E 118°12'8 7.9
2015-Apr-27 04:33N 24°25' E 118°17'0 0.0
2015-Apr-27 03:17N 24°25' E 118°17'0 0.0
2015-Apr-27 02:32N 24°25' E 118°17'0 0.0
2015-Apr-27 01:33N 24°25' E 118°17'0 0.0
2015-Apr-27 00:33N 24°25' E 118°17'0 0.0
2015-Apr-26 23:33N 24°25' E 118°17'0 0.0
2015-Apr-26 22:32N 24°25' E 118°17'0 0.0
2015-Apr-26 21:33N 24°25' E 118°17'0 0.0
2015-Apr-26 20:33N 24°25' E 118°17'0 0.0
2015-Apr-26 19:33N 24°25' E 118°17'0 0.0
2015-Apr-26 18:31N 24°25' E 118°17'0 0.0
2015-Apr-26 17:28N 24°25' E 118°17'0 0.0
2015-Apr-26 16:33N 24°25' E 118°17'0 0.0
2015-Apr-26 15:32N 24°25' E 118°17'0 0.0
2015-Apr-26 14:32N 24°25' E 118°17'0 0.0
2015-Apr-26 10:22N 24°25' E 118°17'5 5.8
2015-Apr-26 09:33N 24°30' E 118°15'4 4.1
2015-Apr-26 08:32N 24°32' E 118°11'9 9.0
2015-Apr-26 07:33N 24°25' E 118°17'0 0.0
2015-Apr-26 06:32N 24°25' E 118°17'0 0.5
2015-Apr-26 05:32N 24°25' E 118°17'0 0.0
2015-Apr-26 04:33N 24°25' E 118°17'7 7.4
2015-Apr-26 03:32N 24°32' E 118°13'1 1.3
2015-Apr-26 02:32N 24°31' E 118°14'7 6.6
2015-Apr-26 01:32N 24°25' E 118°17'0 0.1
2015-Apr-26 00:32N 24°25' E 118°17'0 0.0
2015-Apr-25 23:33N 24°25' E 118°17'0 0.0
2015-Apr-25 22:26N 24°25' E 118°17'0 0.0
2015-Apr-25 21:32N 24°25' E 118°17'0 0.0
2015-Apr-25 20:33N 24°25' E 118°17'0 0.0
2015-Apr-25 19:32N 24°25' E 118°17'0 0.0
2015-Apr-25 18:31N 24°25' E 118°17'0 0.0
2015-Apr-25 17:33N 24°25' E 118°17'0 0.0
2015-Apr-25 16:34N 24°25' E 118°17'0 0.0
2015-Apr-25 15:28N 24°25' E 118°17'0 0.0
2015-Apr-25 14:31N 24°25' E 118°17'0 0.0
2015-Apr-25 10:22N 24°25' E 118°17'0 0.0
2015-Apr-25 09:28N 24°25' E 118°17'0 0.0
2015-Apr-25 08:24N 24°25' E 118°17'8 9.8
2015-Apr-25 07:33N 24°32' E 118°12'1 0.7
2015-Apr-25 06:33N 24°32' E 118°13'6 1.6
2015-Apr-25 02:33N 24°27' E 118°17'  

Dump ship's entire track history